Time;durP1;ratioP1;P1;durP2;ratioP2;P2;SDS_P1;SDS_P2;PMS_P1;PMS_P2;Temp;Humidity;BMP_temperature;BMP_pressure;BME280_temperature;BME280_humidity;BME280_pressure;Samples;Min_cycle;Max_cycle;Signal;HPM_P1;HPM_P2
2021/06/03 00:02:10;;;;;;;;;16.00;15.50;;;;;21.26;61.60;101443.69;4989528;28;46980;-91
2021/06/03 00:04:36;;;;;;;;;18.25;16.50;;;;;21.13;61.44;101423.91;4988639;28;46770;-91
2021/06/03 00:07:02;;;;;;;;;19.25;16.75;;;;;21.16;61.88;101434.63;4993857;28;45402;-91
2021/06/03 00:09:28;;;;;;;;;15.75;15.75;;;;;21.15;61.83;101435.47;4992520;28;45634;-90
2021/06/03 00:11:53;;;;;;;;;17.50;15.75;;;;;21.10;61.76;101429.16;4990746;28;46496;-90
2021/06/03 00:14:19;;;;;;;;;19.00;16.25;;;;;21.14;61.71;101436.31;4989423;28;46243;-90
2021/06/03 00:16:45;;;;;;;;;18.50;16.50;;;;;21.16;61.40;101443.50;4988691;28;45560;-90
2021/06/03 00:19:11;;;;;;;;;18.50;17.75;;;;;21.06;61.57;101425.53;4991154;28;45407;-91
2021/06/03 00:21:40;;;;;;;;;20.75;19.75;;;;;21.12;62.00;101444.28;4990702;28;46173;-90
2021/06/03 00:24:06;;;;;;;;;20.25;19.00;;;;;21.16;61.71;101453.22;4991089;28;45430;-91
2021/06/03 00:26:33;;;;;;;;;20.50;18.50;;;;;21.02;61.80;101440.50;4975931;28;45921;-90
2021/06/03 00:28:58;;;;;;;;;18.00;17.25;;;;;20.97;62.53;101431.50;4974728;28;45502;-91
2021/06/03 00:31:24;;;;;;;;;20.75;17.75;;;;;21.00;61.99;101439.56;4987451;28;45675;-90
2021/06/03 00:33:49;;;;;;;;;18.00;15.75;;;;;21.00;62.11;101446.66;4990806;28;45466;-90
2021/06/03 00:36:14;;;;;;;;;18.25;16.75;;;;;20.93;62.17;101440.28;4989089;28;45675;-91
2021/06/03 00:38:40;;;;;;;;;17.25;15.00;;;;;21.05;62.02;101466.25;4989988;28;45577;-92
2021/06/03 00:41:08;;;;;;;;;14.00;14.00;;;;;20.96;61.78;101450.06;4975457;28;46952;-92
2021/06/03 00:43:34;;;;;;;;;20.25;17.50;;;;;20.88;62.15;101442.84;4988928;28;46478;-90
2021/06/03 00:46:00;;;;;;;;;17.75;16.75;;;;;20.97;61.35;101466.06;4991713;28;45297;-91
2021/06/03 00:48:26;;;;;;;;;17.50;16.00;;;;;21.00;62.36;101473.22;4988894;28;45580;-91
2021/06/03 00:50:54;;;;;;;;;19.25;15.25;;;;;20.88;62.11;101455.22;4989814;28;46307;-92
2021/06/03 00:53:20;;;;;;;;;18.00;15.50;;;;;20.78;62.49;101444.34;4975725;28;45448;-91
2021/06/03 00:55:52;;;;;;;;;16.75;15.25;;;;;20.97;62.30;101481.13;4990984;28;45490;-90
2021/06/03 00:58:18;;;;;;;;;17.00;15.25;;;;;20.97;62.39;101478.47;4984531;28;45596;-90
2021/06/03 01:00:43;;;;;;;;;16.25;14.50;;;;;20.91;62.11;101471.22;4984958;28;47550;-93
2021/06/03 01:03:10;;;;;;;;;17.75;16.75;;;;;20.87;62.48;101466.69;4989027;28;45894;-90
2021/06/03 01:05:51;;;;;;;;;18.25;17.25;;;;;20.93;62.59;101475.72;4991294;28;45705;-90
2021/06/03 01:08:21;;;;;;;;;18.25;16.50;;;;;20.93;62.69;101482.78;4977869;28;45814;-91
2021/06/03 01:11:12;;;;;;;;;15.50;14.75;;;;;20.91;62.35;101484.50;4975237;28;48103;-91
2021/06/03 01:13:46;;;;;;;;;19.25;17.50;;;;;20.93;62.42;101490.75;4979273;28;45759;-90
2021/06/03 01:16:13;;;;;;;;;15.50;14.50;;;;;20.73;62.51;101455.72;4991495;28;45792;-91
2021/06/03 01:18:41;;;;;;;;;18.00;18.00;;;;;20.89;62.16;101480.91;4991656;28;44941;-92
2021/06/03 01:21:30;;;;;;;;;16.25;16.25;;;;;20.99;62.76;101496.22;4990341;28;51066;-90
2021/06/03 01:24:14;;;;;;;;;16.50;14.25;;;;;20.94;62.58;101487.25;4969244;28;46098;-91
2021/06/03 01:26:40;;;;;;;;;16.75;15.75;;;;;20.93;62.37;101490.75;4990899;28;45430;-91
2021/06/03 01:29:06;;;;;;;;;18.50;16.00;;;;;21.00;62.31;101502.44;4990585;28;45476;-91
2021/06/03 01:31:31;;;;;;;;;19.75;15.25;;;;;20.83;62.70;101478.97;4974423;28;47010;-90
2021/06/03 01:33:57;;;;;;;;;16.75;14.75;;;;;20.94;62.92;101487.25;4988699;28;45629;-91
2021/06/03 01:36:23;;;;;;;;;18.50;17.00;;;;;20.97;62.77;101502.38;4986033;28;45569;-91
2021/06/03 01:38:49;;;;;;;;;17.50;17.00;;;;;20.90;62.75;101504.84;4990182;28;45485;-90
2021/06/03 01:41:14;;;;;;;;;23.00;17.75;;;;;20.90;62.65;101498.66;4975210;28;46902;-90
2021/06/03 01:43:43;;;;;;;;;18.00;14.75;;;;;20.87;62.60;101502.09;4985878;28;45545;-91
2021/06/03 01:46:10;;;;;;;;;18.50;16.25;;;;;20.80;62.67;101498.38;4972903;28;45802;-90
2021/06/03 01:48:36;;;;;;;;;19.75;17.50;;;;;20.81;62.45;101510.81;4992319;28;45770;-89
2021/06/03 01:51:04;;;;;;;;;14.25;13.75;;;;;20.67;62.57;101494.53;4988724;28;45675;-90
2021/06/03 01:53:30;;;;;;;;;25.00;17.75;;;;;20.75;62.74;101515.97;4994344;28;45685;-90
2021/06/03 01:56:04;;;;;;;;;20.50;16.50;;;;;20.62;62.99;101504.13;4991888;28;45470;-91
2021/06/03 01:58:30;;;;;;;;;19.25;16.00;;;;;20.55;63.20;101495.09;4993273;28;45490;-92
2021/06/03 02:00:58;;;;;;;;;20.25;16.00;;;;;20.68;63.18;101519.31;4995689;28;46774;-93
2021/06/03 02:03:25;;;;;;;;;21.25;18.50;;;;;20.66;62.90;101521.03;4995675;28;45646;-91
2021/06/03 02:05:52;;;;;;;;;18.25;16.50;;;;;20.66;63.37;101521.03;4993357;28;45736;-92
2021/06/03 02:08:17;;;;;;;;;19.00;17.75;;;;;20.63;62.96;101526.25;4995033;28;45771;-92
2021/06/03 02:10:43;;;;;;;;;21.00;18.75;;;;;20.53;63.48;101511.84;4979112;28;46953;-93
2021/06/03 02:13:30;;;;;;;;;18.50;18.50;;;;;20.60;62.86;101531.50;4994139;28;45799;-92
2021/06/03 02:16:09;;;;;;;;;17.50;16.25;;;;;20.55;63.38;101536.69;4979827;28;45616;-92
2021/06/03 02:18:40;;;;;;;;;18.75;16.25;;;;;20.53;63.20;101531.34;4979548;28;45483;-92
2021/06/03 02:21:07;;;;;;;;;17.00;17.00;;;;;20.49;63.50;101532.13;4995848;28;46809;-91
2021/06/03 02:23:33;;;;;;;;;17.50;15.50;;;;;20.40;63.59;101514.16;4994047;28;45446;-92
2021/06/03 02:26:01;;;;;;;;;19.75;17.75;;;;;20.42;63.44;101524.84;4995274;28;45466;-92
2021/06/03 02:28:28;;;;;;;;;18.00;18.00;;;;;20.38;63.66;101528.25;4992603;28;45585;-91
2021/06/03 02:30:56;;;;;;;;;20.25;16.25;;;;;20.35;63.69;101522.84;4994538;28;48161;-91
2021/06/03 02:33:27;;;;;;;;;18.25;18.25;;;;;20.20;63.67;101505.69;4992884;28;45673;-91
2021/06/03 02:35:53;;;;;;;;;17.75;16.00;;;;;20.33;64.51;101529.91;4999783;28;45663;-90
2021/06/03 02:38:23;;;;;;;;;19.75;16.00;;;;;20.34;64.02;101532.59;4997516;28;45549;-90
2021/06/03 02:40:50;;;;;;;;;17.75;17.75;;;;;20.29;64.31;101527.16;4996110;28;46541;-90
2021/06/03 02:43:16;;;;;;;;;18.25;17.00;;;;;20.32;64.11;101525.41;4980525;28;45954;-92
2021/06/03 02:45:42;;;;;;;;;18.50;17.25;;;;;20.33;63.91;101533.44;4985314;28;44938;-93
2021/06/03 02:48:07;;;;;;;;;21.75;19.75;;;;;20.36;64.10;101529.97;5004792;28;45762;-92
2021/06/03 02:50:33;;;;;;;;;23.25;17.50;;;;;20.32;63.79;101526.34;5003557;28;45487;-92
2021/06/03 02:52:58;;;;;;;;;25.00;18.75;;;;;20.27;64.06;101515.59;5001223;28;44949;-91
2021/06/03 02:55:24;;;;;;;;;16.00;16.00;;;;;20.38;64.31;101536.22;4997456;28;45415;-92
2021/06/03 02:57:50;;;;;;;;;18.75;17.00;;;;;20.39;64.08;101544.22;4998815;28;45512;-92
2021/06/03 03:00:20;;;;;;;;;17.75;17.50;;;;;20.41;64.33;101536.31;4994722;28;47147;-91
2021/06/03 03:02:46;;;;;;;;;27.50;20.25;;;;;20.25;63.88;101512.00;4996348;28;45514;-91
2021/06/03 03:05:12;;;;;;;;;20.00;18.00;;;;;20.29;64.14;101518.28;4995482;28;45727;-93
2021/06/03 03:07:37;;;;;;;;;17.00;16.75;;;;;20.31;64.48;101527.19;4977458;28;45596;-92
2021/06/03 03:10:11;;;;;;;;;17.25;16.50;;;;;20.30;63.85;101525.38;4997860;28;45938;-91
2021/06/03 03:12:36;;;;;;;;;18.25;16.25;;;;;20.42;64.13;101552.28;4994781;28;45431;-91
2021/06/03 03:15:04;;;;;;;;;19.25;18.25;;;;;20.35;64.05;101539.69;4993519;28;45394;-93
2021/06/03 03:17:29;;;;;;;;;23.75;19.00;;;;;20.41;64.64;101555.78;4995480;28;45236;-93
2021/06/03 03:19:55;;;;;;;;;23.50;20.00;;;;;20.26;63.94;101527.06;4993935;28;47275;-90
2021/06/03 03:22:20;;;;;;;;;19.75;18.00;;;;;20.24;64.44;101539.41;4996064;28;45462;-91
2021/06/03 03:24:45;;;;;;;;;22.75;15.25;;;;;20.34;64.42;101548.53;4998726;28;45819;-92
2021/06/03 03:27:11;;;;;;;;;19.00;19.00;;;;;20.22;64.67;101529.56;4993678;28;45510;-90
2021/06/03 03:29:36;;;;;;;;;22.75;19.25;;;;;20.27;63.94;101551.84;4974284;28;48602;-89
2021/06/03 03:32:02;;;;;;;;;17.75;16.50;;;;;20.27;64.51;101549.19;4991811;28;45584;-90
2021/06/03 03:34:28;;;;;;;;;18.75;17.00;;;;;20.29;64.20;101571.34;4992599;28;45686;-90
2021/06/03 03:36:53;;;;;;;;;20.00;17.25;;;;;20.27;64.60;101573.09;4994020;28;45906;-91
2021/06/03 03:39:19;;;;;;;;;19.25;18.00;;;;;20.20;64.52;101566.69;4994416;28;45492;-91
2021/06/03 03:41:44;;;;;;;;;20.50;17.50;;;;;20.17;64.88;101577.22;4989538;28;46614;-91
2021/06/03 03:44:09;;;;;;;;;26.50;21.00;;;;;20.03;64.71;101551.19;4990142;28;45478;-91
2021/06/03 03:46:36;;;;;;;;;19.25;19.00;;;;;20.09;64.94;101570.78;4990751;28;45740;-90
2021/06/03 03:49:02;;;;;;;;;24.25;17.50;;;;;20.19;64.84;101593.19;4990371;28;47336;-91
2021/06/03 03:51:28;;;;;;;;;23.00;19.50;;;;;20.04;64.63;101570.66;4973181;28;45956;-91
2021/06/03 03:53:54;;;;;;;;;21.75;19.25;;;;;20.24;65.18;101599.53;4988959;28;45630;-91
2021/06/03 03:56:20;;;;;;;;;20.75;19.50;;;;;20.24;64.68;101604.81;4992680;28;45390;-91
2021/06/03 03:58:48;;;;;;;;;20.00;17.50;;;;;20.18;65.13;101594.94;4987949;28;47417;-91
2021/06/03 04:01:14;;;;;;;;;18.75;17.25;;;;;20.12;64.82;101573.53;4993522;28;45473;-92
2021/06/03 04:03:39;;;;;;;;;18.50;18.00;;;;;20.26;64.85;101609.31;4990686;28;45533;-90
2021/06/03 04:06:06;;;;;;;;;20.25;18.25;;;;;20.29;64.58;101609.41;4989225;28;45586;-92
2021/06/03 04:08:31;;;;;;;;;21.25;18.00;;;;;20.18;64.59;101594.94;4978833;28;47615;-90
2021/06/03 04:10:56;;;;;;;;;19.00;16.25;;;;;20.29;64.80;101609.41;4991107;28;45499;-91
2021/06/03 04:13:22;;;;;;;;;18.25;17.25;;;;;20.19;64.67;101590.53;4989029;28;45493;-91
2021/06/03 04:15:48;;;;;;;;;17.00;16.75;;;;;20.26;64.44;101603.09;4993827;28;45441;-91
2021/06/03 04:18:13;;;;;;;;;16.00;15.25;;;;;20.29;64.97;101614.72;4992925;28;45813;-91
2021/06/03 04:20:39;;;;;;;;;18.25;18.00;;;;;20.21;64.50;101604.72;4994095;28;45505;-90
2021/06/03 04:23:04;;;;;;;;;18.25;16.50;;;;;20.35;64.97;101624.63;4990951;28;45672;-90
2021/06/03 04:25:30;;;;;;;;;19.25;17.50;;;;;20.26;64.61;101611.97;4974924;28;45637;-90
2021/06/03 04:27:55;;;;;;;;;19.00;19.00;;;;;20.35;64.72;101629.94;4993450;28;47169;-91
2021/06/03 04:30:24;;;;;;;;;20.75;18.00;;;;;20.41;64.68;101627.44;4986816;28;45858;-91
2021/06/03 04:32:50;;;;;;;;;25.25;19.25;;;;;20.36;64.58;101620.19;4988843;28;45534;-91
2021/06/03 04:35:21;;;;;;;;;23.00;18.50;;;;;20.29;64.73;101611.16;4976254;28;45641;-91
2021/06/03 04:37:51;;;;;;;;;23.00;20.50;;;;;20.38;64.92;101626.47;4992204;28;46764;-90
2021/06/03 04:40:20;;;;;;;;;20.00;17.75;;;;;20.42;64.61;101637.22;4992309;28;45393;-91
2021/06/03 04:42:47;;;;;;;;;19.50;16.75;;;;;20.28;64.79;101607.63;4991977;28;45515;-91
2021/06/03 04:45:14;;;;;;;;;22.00;19.75;;;;;20.38;64.74;101626.47;4990527;28;46523;-91
2021/06/03 04:47:43;;;;;;;;;18.25;16.00;;;;;20.46;64.73;101638.22;4992437;28;46787;-91
2021/06/03 04:50:09;;;;;;;;;21.50;18.50;;;;;20.38;64.57;101627.38;4990499;28;46091;-90
2021/06/03 04:52:35;;;;;;;;;25.00;18.50;;;;;20.29;64.48;101609.41;4990379;28;45561;-90
2021/06/03 04:55:11;;;;;;;;;20.00;19.75;;;;;20.48;64.33;101636.47;4991798;28;45455;-90
2021/06/03 04:57:39;;;;;;;;;21.75;19.50;;;;;20.46;64.68;101626.69;4991719;28;45575;-91
2021/06/03 05:00:09;;;;;;;;;22.50;18.75;;;;;20.41;64.42;101605.31;4969318;28;46160;-91
2021/06/03 05:02:34;;;;;;;;;22.25;18.50;;;;;20.42;64.22;101607.13;4989334;28;45581;-90
2021/06/03 05:05:00;;;;;;;;;20.50;20.00;;;;;20.57;64.44;101627.88;4984810;28;45623;-91
2021/06/03 05:07:25;;;;;;;;;21.75;18.25;;;;;20.48;64.45;101609.94;4985396;28;47007;-92
2021/06/03 05:09:51;;;;;;;;;20.50;18.50;;;;;20.64;64.33;101624.56;4989489;28;45635;-91
2021/06/03 05:12:17;;;;;;;;;18.00;17.75;;;;;20.73;64.78;101634.53;4968380;28;45528;-91
2021/06/03 05:14:42;;;;;;;;;22.75;19.75;;;;;20.67;64.36;101618.44;4971896;28;45933;-91
2021/06/03 05:17:08;;;;;;;;;20.50;17.75;;;;;20.76;64.33;101629.28;4987242;28;47241;-90
2021/06/03 05:19:34;;;;;;;;;21.75;18.00;;;;;20.81;64.47;101638.31;4987854;28;45976;-92
2021/06/03 05:22:00;;;;;;;;;23.75;19.25;;;;;20.79;63.91;101637.34;4988645;28;45331;-90
2021/06/03 05:24:25;;;;;;;;;21.50;18.25;;;;;20.78;64.17;101624.94;4988820;28;45561;-91
2021/06/03 05:26:50;;;;;;;;;23.25;19.75;;;;;20.84;63.88;101632.19;4973054;28;47953;-91
2021/06/03 05:29:16;;;;;;;;;23.75;19.50;;;;;20.95;63.68;101653.75;4984812;28;45906;-90
2021/06/03 05:31:43;;;;;;;;;24.50;20.00;;;;;20.90;63.90;101634.13;4987141;28;46806;-90
2021/06/03 05:34:08;;;;;;;;;20.50;17.25;;;;;20.90;64.00;101631.47;4989951;28;46291;-92
2021/06/03 05:36:34;;;;;;;;;21.25;20.00;;;;;20.99;63.96;101645.00;4989101;28;45583;-91
2021/06/03 05:38:59;;;;;;;;;26.00;21.00;;;;;20.98;64.04;101634.34;4994930;28;45725;-92
2021/06/03 05:41:25;;;;;;;;;20.25;20.00;;;;;21.15;63.34;101653.38;4973201;28;45545;-93
2021/06/03 05:43:50;;;;;;;;;19.75;18.25;;;;;21.12;63.91;101640.00;4989439;28;45542;-91
2021/06/03 05:46:15;;;;;;;;;19.00;17.25;;;;;21.10;63.64;101633.75;4991951;28;48064;-92
2021/06/03 05:48:41;;;;;;;;;18.25;17.75;;;;;21.19;63.47;101640.19;4995315;28;45522;-90
2021/06/03 05:51:06;;;;;;;;;22.25;20.25;;;;;21.16;63.71;101632.19;4994796;28;45492;-91
2021/06/03 05:53:32;;;;;;;;;24.00;18.50;;;;;21.33;63.93;101653.84;4994152;28;45551;-92
2021/06/03 05:55:57;;;;;;;;;20.75;19.25;;;;;21.41;63.36;101655.81;4996957;28;46666;-91
2021/06/03 05:58:22;;;;;;;;;21.75;17.75;;;;;21.49;62.78;101663.97;4993218;28;45427;-91
2021/06/03 06:00:48;;;;;;;;;20.75;19.00;;;;;21.50;63.37;101650.72;4995237;28;45474;-91
2021/06/03 06:03:22;;;;;;;;;20.00;19.00;;;;;21.50;63.09;101637.41;4995723;28;45604;-91
2021/06/03 06:08:32;;;;;;;;;21.50;18.75;;;;;21.76;62.12;101650.50;4992652;28;45541;-92
2021/06/03 06:10:57;;;;;;;;;26.75;21.50;;;;;21.83;61.72;101644.44;4977783;28;45442;-92
2021/06/03 06:13:22;;;;;;;;;23.75;20.25;;;;;21.90;61.29;101636.59;4993529;28;45072;-92
2021/06/03 06:15:48;;;;;;;;;19.75;18.00;;;;;22.08;61.21;101647.69;4998286;28;45508;-93
2021/06/03 06:18:13;;;;;;;;;23.25;20.25;;;;;22.31;60.75;101673.88;4997981;28;45609;-93
2021/06/03 06:20:39;;;;;;;;;20.00;18.75;;;;;22.35;60.74;101651.78;4984765;28;44918;-93
2021/06/03 06:23:05;;;;;;;;;24.75;20.25;;;;;23.17;60.36;101675.59;4995351;28;45443;-93
2021/06/03 06:25:31;;;;;;;;;22.00;17.75;;;;;25.19;57.91;101647.22;4997108;28;45504;-94
2021/06/03 06:27:57;;;;;;;;;24.25;20.25;;;;;26.93;53.94;101676.81;4996066;28;45453;-92
2021/06/03 06:30:24;;;;;;;;;19.25;19.25;;;;;28.25;51.17;101681.22;4978082;28;45735;-94
2021/06/03 06:32:50;;;;;;;;;23.75;21.75;;;;;30.05;48.46;101688.97;4975253;28;45583;-89
2021/06/03 06:35:17;;;;;;;;;19.75;19.00;;;;;31.51;45.19;101665.41;4993838;28;46568;-92
2021/06/03 06:37:43;;;;;;;;;20.00;19.25;;;;;32.20;42.90;101667.69;4991610;28;46320;-92
2021/06/03 06:40:08;;;;;;;;;20.50;19.25;;;;;32.44;41.65;101669.00;4990910;28;45379;-93
2021/06/03 06:42:34;;;;;;;;;22.50;20.25;;;;;32.26;42.02;101675.69;4990111;28;46581;-92
2021/06/03 06:45:00;;;;;;;;;19.50;17.25;;;;;32.03;41.33;101689.69;4988762;28;46241;-92
2021/06/03 06:47:25;;;;;;;;;18.75;17.00;;;;;32.17;40.72;101687.59;4995455;28;45577;-92
2021/06/03 06:49:51;;;;;;;;;19.25;19.00;;;;;32.39;40.20;101690.72;4991753;28;45509;-93
2021/06/03 06:52:16;;;;;;;;;21.50;20.00;;;;;33.21;39.65;101689.84;4992055;28;45471;-92
2021/06/03 06:54:42;;;;;;;;;21.25;18.00;;;;;34.32;38.35;101687.81;4976437;28;47343;-92
2021/06/03 06:57:08;;;;;;;;;24.75;19.50;;;;;35.01;37.27;101676.66;4994133;28;45634;-94
2021/06/03 06:59:34;;;;;;;;;22.50;20.25;;;;;35.02;36.15;101694.72;4996498;28;45749;-91
2021/06/03 07:02:00;;;;;;;;;22.50;19.50;;;;;33.76;36.08;101672.19;4993714;28;45557;-93
2021/06/03 07:04:26;;;;;;;;;19.50;17.25;;;;;32.46;38.08;101685.25;4977210;28;47822;-92
2021/06/03 07:06:51;;;;;;;;;21.75;20.50;;;;;31.46;38.62;101658.28;4994152;28;45783;-92
2021/06/03 07:09:17;;;;;;;;;20.75;20.25;;;;;30.73;39.84;101686.41;4992201;28;45722;-93
2021/06/03 07:11:42;;;;;;;;;19.75;19.75;;;;;29.75;41.06;101685.72;4979330;28;47602;-94
2021/06/03 07:14:07;;;;;;;;;23.00;22.50;;;;;28.75;42.92;101677.47;4989232;28;45977;-95
2021/06/03 07:16:33;;;;;;;;;22.50;18.25;;;;;28.06;44.28;101695.59;4978692;28;47535;-94
2021/06/03 07:18:58;;;;;;;;;22.75;19.00;;;;;27.74;46.05;101687.63;4979427;28;47090;-96
2021/06/03 07:21:24;;;;;;;;;19.25;19.00;;;;;28.16;45.52;101689.31;4981609;28;45597;-94
2021/06/03 07:23:49;;;;;;;;;19.50;17.25;;;;;28.68;44.74;101692.75;4978115;28;48159;-93
2021/06/03 07:26:15;;;;;;;;;22.50;19.75;;;;;29.12;44.21;101704.16;4975784;28;45949;-92
2021/06/03 07:28:40;;;;;;;;;20.00;16.25;;;;;29.14;42.81;101683.50;4997697;28;45646;-94
2021/06/03 07:31:06;;;;;;;;;20.50;18.25;;;;;29.04;42.52;101703.31;4998264;28;45791;-95
2021/06/03 07:33:31;;;;;;;;;19.25;15.75;;;;;28.96;43.93;101702.47;4993579;28;46838;-94
2021/06/03 07:35:57;;;;;;;;;21.50;18.00;;;;;29.02;42.50;101702.41;4995463;28;45455;-95
2021/06/03 07:38:23;;;;;;;;;21.50;17.00;;;;;28.83;42.60;101704.28;4995011;28;46358;-93
2021/06/03 07:40:49;;;;;;;;;21.25;15.75;;;;;28.62;42.59;101707.09;4994236;28;45995;-92
2021/06/03 07:43:15;;;;;;;;;15.00;12.25;;;;;28.36;42.92;101691.97;4973786;28;48010;-94
2021/06/03 07:45:42;;;;;;;;;15.75;12.50;;;;;28.34;42.50;101711.69;4984449;28;45823;-93
2021/06/03 07:48:08;;;;;;;;;15.50;12.75;;;;;28.21;42.95;101706.31;4993240;28;46425;-94
2021/06/03 07:50:36;;;;;;;;;14.50;14.50;;;;;28.15;43.43;101712.59;4981091;28;45559;-93
2021/06/03 07:53:03;;;;;;;;;14.00;13.00;;;;;28.01;44.09;101712.63;4995742;28;45897;-93
2021/06/03 07:55:29;;;;;;;;;15.75;14.00;;;;;27.86;44.49;101712.66;4994769;28;45534;-94
2021/06/03 07:57:58;;;;;;;;;15.75;14.75;;;;;27.69;44.93;101705.50;4981080;28;45473;-94
2021/06/03 08:00:25;;;;;;;;;17.75;15.25;;;;;27.57;45.63;101694.75;4995123;28;45588;-95
2021/06/03 08:02:50;;;;;;;;;15.50;13.75;;;;;27.77;45.09;101718.94;4983086;28;47371;-94
2021/06/03 08:05:19;;;;;;;;;14.50;14.50;;;;;27.74;44.26;101711.78;4988230;28;45762;-94
2021/06/03 08:07:45;;;;;;;;;16.50;13.75;;;;;27.56;44.23;101695.66;4997717;28;45469;-94
2021/06/03 08:10:14;;;;;;;;;14.75;13.75;;;;;27.57;44.88;101711.75;5008462;28;45538;-94
2021/06/03 08:12:39;;;;;;;;;18.50;15.00;;;;;27.57;44.96;101732.31;5001440;28;46755;-93
2021/06/03 08:15:08;;;;;;;;;21.50;18.50;;;;;27.49;44.21;101719.84;4998283;28;45478;-94
2021/06/03 08:17:34;;;;;;;;;19.00;18.00;;;;;27.41;44.23;101721.63;4995769;28;45547;-95
2021/06/03 08:19:59;;;;;;;;;17.75;16.75;;;;;27.48;44.52;101727.88;4994198;28;45562;-95
2021/06/03 08:22:25;;;;;;;;;21.75;18.00;;;;;27.42;44.46;101714.44;4994207;28;46222;-94
2021/06/03 08:24:50;;;;;;;;;19.75;16.50;;;;;27.38;44.83;101709.06;4981602;28;45966;-94
2021/06/03 08:27:17;;;;;;;;;17.50;16.00;;;;;27.49;45.86;101718.94;4994897;28;45647;-94
2021/06/03 08:29:43;;;;;;;;;21.50;17.25;;;;;27.60;45.09;101729.66;4976754;28;45699;-93
2021/06/03 08:32:08;;;;;;;;;18.75;16.50;;;;;27.57;45.07;101722.50;4997671;28;46571;-94
2021/06/03 08:34:34;;;;;;;;;15.75;14.50;;;;;27.75;44.99;101742.22;4993652;28;45887;-95
2021/06/03 08:36:59;;;;;;;;;17.00;13.50;;;;;27.61;44.67;101715.31;4998796;28;45335;-92
2021/06/03 08:39:25;;;;;;;;;19.00;14.75;;;;;27.80;44.29;101734.16;4994108;28;45720;-94
2021/06/03 08:41:51;;;;;;;;;17.00;14.00;;;;;27.76;43.10;101720.72;4995641;28;46567;-95
2021/06/03 08:44:17;;;;;;;;;13.00;13.00;;;;;27.83;43.72;101734.16;4994283;28;45569;-95
2021/06/03 08:46:44;;;;;;;;;16.50;14.50;;;;;27.86;44.63;101723.41;4994566;28;45648;-94
2021/06/03 08:49:10;;;;;;;;;16.75;15.00;;;;;27.93;44.53;101718.94;4978205;28;45436;-92
2021/06/03 08:51:36;;;;;;;;;20.25;17.00;;;;;28.09;43.46;101726.06;4993738;28;47330;-94
2021/06/03 08:54:04;;;;;;;;;17.75;16.00;;;;;28.18;43.51;101730.50;4991812;28;45935;-94
2021/06/03 08:56:30;;;;;;;;;15.75;13.25;;;;;28.17;44.41;101731.41;4994841;28;45426;-96
2021/06/03 08:58:59;;;;;;;;;17.50;15.00;;;;;28.15;44.35;101738.59;4993815;28;45886;-93
2021/06/03 09:01:26;;;;;;;;;17.00;14.75;;;;;28.14;43.65;101724.25;4995337;28;45641;-93
2021/06/03 09:03:52;;;;;;;;;16.50;15.75;;;;;28.22;43.67;101707.22;4995413;28;45668;-95
2021/06/03 09:06:18;;;;;;;;;15.50;14.50;;;;;28.65;43.80;101733.94;4999444;28;45425;-94
2021/06/03 09:08:57;;;;;;;;;14.25;13.50;;;;;28.86;42.34;101729.38;4995722;28;45233;-95
2021/06/03 09:11:24;;;;;;;;;15.00;14.75;;;;;28.81;42.77;101706.13;4995419;28;45837;-96
2021/06/03 09:13:52;;;;;;;;;18.75;13.50;;;;;28.86;41.93;101717.72;4993454;28;45799;-95
2021/06/03 09:16:39;;;;;;;;;16.25;15.00;;;;;28.78;41.97;101723.13;4998957;28;44846;-93
2021/06/03 09:19:07;;;;;;;;;19.25;13.50;;;;;28.66;42.04;101738.44;4993971;28;45487;-95
2021/06/03 09:21:36;;;;;;;;;17.50;14.75;;;;;28.42;43.09;101709.88;4980706;28;48072;-92
2021/06/03 09:24:07;;;;;;;;;15.50;13.50;;;;;28.47;42.33;101715.22;4991445;28;46146;-94
2021/06/03 09:26:35;;;;;;;;;18.25;16.75;;;;;28.48;41.58;101725.06;4997019;28;45773;-96
2021/06/03 09:29:04;;;;;;;;;19.50;14.25;;;;;28.16;41.82;101726.94;4977135;28;45551;-94
2021/06/03 09:31:32;;;;;;;;;18.75;14.25;;;;;27.96;43.59;101725.19;4993850;28;47366;-93
2021/06/03 09:34:08;;;;;;;;;16.50;15.00;;;;;27.96;43.29;101724.28;4978417;28;45792;-93
2021/06/03 09:36:38;;;;;;;;;16.50;15.00;;;;;28.00;43.18;101720.69;4996757;28;45521;-93
2021/06/03 09:39:28;;;;;;;;;14.50;13.00;;;;;28.00;43.31;101718.00;5000895;28;45470;-94
2021/06/03 09:42:02;;;;;;;;;20.25;15.00;;;;;28.08;42.46;101723.38;4989976;28;47601;-94
2021/06/03 09:44:35;;;;;;;;;14.25;13.50;;;;;27.89;43.32;101693.84;4994829;28;46281;-94
2021/06/03 09:47:05;;;;;;;;;13.25;12.00;;;;;28.06;41.83;101719.78;4978394;28;45687;-95
2021/06/03 09:49:33;;;;;;;;;17.00;14.25;;;;;27.76;43.02;101696.56;4979398;28;47401;-94
2021/06/03 09:52:05;;;;;;;;;18.75;13.75;;;;;27.69;43.93;101705.50;4994472;28;48318;-94
2021/06/03 09:54:31;;;;;;;;;14.50;11.50;;;;;27.66;42.94;101718.97;4991645;28;45473;-95
2021/06/03 09:57:08;;;;;;;;;13.00;13.00;;;;;27.41;42.81;101705.50;4977925;28;45537;-96
2021/06/03 09:59:43;;;;;;;;;15.75;12.75;;;;;27.34;43.46;101731.41;4993064;28;45530;-94
2021/06/03 10:02:17;;;;;;;;;21.50;15.75;;;;;27.18;43.66;101726.94;4995569;28;46062;-95
2021/06/03 10:04:54;;;;;;;;;17.75;15.00;;;;;27.08;43.45;101712.59;4994550;28;45736;-93
2021/06/03 10:07:19;;;;;;;;;17.50;14.25;;;;;27.24;43.51;101726.97;4992980;28;45633;-93
2021/06/03 10:09:48;;;;;;;;;11.25;11.25;;;;;27.18;43.65;101697.41;4994121;28;45612;-93
2021/06/03 10:12:25;;;;;;;;;12.75;11.00;;;;;27.42;43.00;101725.19;4996373;28;47334;-92
2021/06/03 10:15:07;;;;;;;;;15.75;13.25;;;;;27.38;42.26;101701.00;4993883;28;45454;-93
2021/06/03 10:17:38;;;;;;;;;13.00;12.25;;;;;27.46;43.37;101698.34;4994598;28;45517;-92
2021/06/03 10:20:11;;;;;;;;;15.50;12.50;;;;;27.79;43.19;101716.28;4993761;28;45489;-93
2021/06/03 10:22:39;;;;;;;;;12.25;10.50;;;;;27.95;43.00;101704.59;4977762;28;48388;-93
2021/06/03 10:25:05;;;;;;;;;16.50;12.25;;;;;28.01;42.89;101711.75;4996313;28;45446;-93
2021/06/03 10:27:57;;;;;;;;;13.25;12.25;;;;;28.05;43.11;101709.94;4993141;28;45589;-92
2021/06/03 10:30:27;;;;;;;;;17.00;17.00;;;;;28.15;42.80;101711.72;4993809;28;45677;-91
2021/06/03 10:32:55;;;;;;;;;16.00;13.75;;;;;28.18;41.86;101709.00;4992092;28;45748;-95
2021/06/03 10:35:25;;;;;;;;;15.50;15.50;;;;;28.15;42.19;101695.59;4994570;28;45702;-93
2021/06/03 10:37:50;;;;;;;;;16.75;14.25;;;;;28.33;41.93;101713.50;4995394;28;45356;-93
2021/06/03 10:40:28;;;;;;;;;14.25;12.00;;;;;28.44;41.35;101705.38;4979149;28;45606;-92
2021/06/03 10:42:55;;;;;;;;;13.00;11.00;;;;;28.45;40.95;101701.78;4994039;28;48038;-94
2021/06/03 10:45:22;;;;;;;;;11.50;11.25;;;;;28.62;40.32;101712.47;4980678;28;46101;-95
2021/06/03 10:47:48;;;;;;;;;12.00;11.25;;;;;28.73;41.10;101712.41;4997054;28;45460;-95
2021/06/03 10:50:43;;;;;;;;;11.75;8.50;;;;;29.04;39.70;101716.75;4996854;28;45487;-92
2021/06/03 10:53:11;;;;;;;;;11.00;10.50;;;;;29.16;41.17;101703.22;4986420;28;46721;-92
2021/06/03 10:55:50;;;;;;;;;12.00;10.00;;;;;29.44;40.72;101700.31;4976272;28;46025;-92
2021/06/03 10:58:29;;;;;;;;;10.00;9.00;;;;;29.66;39.01;101700.16;4994030;28;45599;-92
2021/06/03 11:01:09;;;;;;;;;10.00;10.00;;;;;29.95;38.11;101695.34;4994407;28;45934;-94
2021/06/03 11:03:49;;;;;;;;;10.00;8.75;;;;;30.07;37.75;101721.31;4973738;28;48141;-92
2021/06/03 11:06:19;;;;;;;;;13.00;11.00;;;;;30.01;38.39;101706.09;4974408;28;45577;-90
2021/06/03 11:08:46;;;;;;;;;12.75;10.50;;;;;29.93;37.83;101689.13;4975360;28;46023;-93
2021/06/03 11:11:11;;;;;;;;;14.50;13.00;;;;;30.09;37.83;101714.06;4996660;28;45684;-93
2021/06/03 11:13:58;;;;;;;;;13.00;13.00;;;;;30.06;37.96;101701.53;4990694;28;45470;-93
2021/06/03 11:16:26;;;;;;;;;14.25;12.75;;;;;30.04;39.22;101707.84;4931964;28;45880;-92